ADDS METAR Data

Data at: 0747 UTC 24 Oct 2017

METAR for:KIJD (Willimantic/Windhan, CT, US)
Text:KIJD 240652Z AUTO 17009KT 10SM -RA OVC019 21/17 A3004 RMK AO2 RAB49 SLP170 P0000 T02060172
Temperature: 20.6°C ( 69°F)
Dewpoint: 17.2°C ( 63°F) [RH = 81%]
Pressure (altimeter):30.04 inches Hg (1017.4 mb) [Sea level pressure: 1017.0 mb]
Winds:from the S (170 degrees) at 10 MPH (9 knots; 4.6 m/s)
Visibility:10 or more sm (16+ km)
Ceiling:1900 feet AGL
Clouds: overcast cloud deck at 1900 feet AGL
Weather:-RA (light rain)
QC Flag:automated observation with no human augmentation